Impacts METAR Board INFO
IDs:

KDTW - Detroit Metro/Wayne, MI, US

Updated at: 1203 UTC 12 Dec 2017
Potential Impact None Slight Moderate High
Time12/00Z 12/01Z 12/02Z 12/03Z 12/04Z 12/05Z 12/06Z 12/07Z 12/08Z 12/09Z 12/10Z 12/11Z 12/12Z
VIS1 1.75 1 0.75 0.75 0.75 2 2 2 4 5 5 6
CIG25 25 25 13 12 13 25 20 35 20 25 25 25
CoverOVCOVCOVCOVXOVXOVCOVCOVCOVCOVCOVCOVCOVC
FltCatIFRIFRIFRLIFRLIFRLIFRIFRIFRIFRMVFRMVFRMVFRMVFR
WX-SN BR-SN BR-SN BR-SN BR-SN BR-SN BR-SN BR-SN BR-SN-SN-SN BLSN-SN BLSN-SN BLSN
WDir15000000290310320330320320310
WSpd4 0 0 0 0 0 6 12 17 19 15 15 19
WGst-- -- -- -- -- -- -- -- 26 25 21 27 28
Raw hourly METARs
KDTW 112356Z 15004KT 1SM R03R/P6000FT -SN BR OVC025 M01/M02 A2975 RMK AO2 SFC VIS 1 1/4 P0000 T10061022 $
KDTW 120053Z 00000KT 1 3/4SM -SN BR OVC025 M01/M02 A2975 RMK AO2 TWR VIS 3 SLP081 P0001 T10061022 $
KDTW 120153Z 00000KT 1SM R03R/P6000FT -SN BR OVC025 M01/M02 A2973 RMK AO2 TWR VIS 2 SLP074 P0001 T10061017 $
KDTW 120253Z 00000KT 3/4SM R03R/6000VP6000FT -SN BR VV013 M01/M01 A2970 RMK AO2 SLP065 P0005 60007 T10061011 58017 $
KDTW 120353Z 00000KT 3/4SM R03R/6000VP6000FT -SN BR VV012 M01/M01 A2968 RMK AO2 SLP056 P0004 T10061011 $
KDTW 120455Z 00000KT 3/4SM R03R/P6000FT -SN BR FEW007 OVC013 M01/M02 A2966 RMK AO2 SFC VIS 1 P0000 T10061017 $
KDTW 120553Z 29006KT 2SM -SN BR SCT005 BKN025 OVC055 M01/M02 A2964 RMK AO2 SFC VIS 2 1/2 SLP045 P0000 60014 T10061022 11006 21006 56019 $
KDTW 120653Z 31012KT 2SM -SN BR SCT005 BKN020 OVC045 M01/M02 A2965 RMK AO2 FZDZB41E52 SLP049 P0000 I1000 T10061022 $
KDTW 120805Z 32017G26KT 2SM -SN SCT015 OVC035 M01/M04 A2968 RMK AO2 PK WND 32026/0756 SFC VIS 4 P0000 T10061039 $
KDTW 120853Z 33019G25KT 4SM -SN BKN020 OVC035 M01/M05 A2969 RMK AO2 PK WND 32026/0756 SLP060 P0000 60000 I3000 T10111050 53015 $
KDTW 120953Z 32015G21KT 5SM -SN BLSN SCT012 BKN025 OVC065 M02/M07 A2972 RMK AO2 PK WND 32026/0931 SLP071 P0001 T10221067 $
KDTW 121053Z 32015G27KT 5SM -SN BLSN SCT012 BKN025 OVC065 M03/M08 A2975 RMK AO2 PK WND 31027/1045 SLP081 P0000 T10331083 $
KDTW 121153Z 31019G28KT 6SM -SN BLSN BKN025 BKN038 OVC055 M04/M12 A2979 RMK AO2 PK WND 33031/1125 SLP096 P0000 60001 70028 I6000 T10441117 10000 21044 53035 $